createdAt,value
2023-10-19T00:00:06.972Z,990.97
2023-10-19T00:01:06.973Z,990.99
2023-10-19T00:02:07.063Z,991.02
2023-10-19T00:03:06.968Z,991.02
2023-10-19T00:04:06.897Z,991.01
2023-10-19T00:05:06.833Z,991.00
2023-10-19T00:06:06.895Z,990.96
2023-10-19T00:07:06.776Z,990.94
2023-10-19T00:08:06.908Z,990.91
2023-10-19T00:09:06.732Z,990.88
2023-10-19T00:10:06.742Z,990.95
2023-10-19T00:11:06.686Z,990.87
2023-10-19T00:12:06.752Z,990.88
2023-10-19T00:13:06.634Z,990.84
2023-10-19T00:14:06.680Z,990.83
2023-10-19T00:15:06.591Z,990.83
2023-10-19T00:16:06.681Z,990.86
2023-10-19T00:17:06.562Z,990.87
2023-10-19T00:18:06.674Z,990.83
2023-10-19T00:19:06.479Z,990.83
2023-10-19T00:20:06.504Z,990.87
2023-10-19T00:21:06.458Z,990.77
2023-10-19T00:22:06.424Z,990.79
2023-10-19T00:23:06.384Z,990.77
2023-10-19T00:24:06.497Z,990.80
2023-10-19T00:25:06.339Z,990.83
2023-10-19T00:26:06.354Z,990.85
2023-10-19T00:27:06.294Z,990.82
2023-10-19T00:28:06.363Z,990.84
2023-10-19T00:29:06.232Z,990.90
2023-10-19T00:30:06.270Z,990.89
2023-10-19T00:31:06.211Z,990.83
2023-10-19T00:32:06.238Z,990.85
2023-10-19T00:33:06.164Z,990.85
2023-10-19T00:34:06.204Z,990.80
2023-10-19T00:35:06.107Z,990.88
2023-10-19T00:36:06.114Z,990.88
2023-10-19T00:37:06.046Z,990.90
2023-10-19T00:38:06.020Z,990.97
2023-10-19T00:39:05.983Z,990.88
2023-10-19T00:40:06.038Z,990.89
2023-10-19T00:41:05.933Z,990.89
2023-10-19T00:42:05.957Z,990.90
2023-10-19T00:43:05.887Z,990.87
2023-10-19T00:44:05.966Z,990.83
2023-10-19T00:45:06.058Z,990.84
2023-10-19T00:46:05.913Z,990.86
2023-10-19T00:47:05.811Z,990.84
2023-10-19T00:48:05.795Z,990.79
2023-10-19T00:49:05.740Z,990.85
2023-10-19T00:50:05.802Z,990.81
2023-10-19T00:51:05.717Z,990.81
2023-10-19T00:52:05.714Z,990.81
2023-10-19T00:53:05.644Z,990.80
2023-10-19T00:54:05.728Z,990.81
2023-10-19T00:55:05.618Z,990.71
2023-10-19T00:56:05.646Z,990.73
2023-10-19T00:57:05.561Z,990.67
2023-10-19T00:58:05.568Z,990.68
2023-10-19T00:59:05.495Z,990.69
2023-10-19T01:00:05.567Z,990.68
2023-10-19T01:01:05.479Z,990.69
2023-10-19T01:02:05.605Z,990.71
2023-10-19T01:03:05.448Z,990.76
2023-10-19T01:04:05.423Z,990.71
2023-10-19T01:05:05.356Z,990.73
2023-10-19T01:06:05.409Z,990.73
2023-10-19T01:07:05.310Z,990.64
2023-10-19T01:08:05.348Z,990.67
2023-10-19T01:09:05.274Z,990.69
2023-10-19T01:10:05.338Z,990.71
2023-10-19T01:11:05.225Z,990.71
2023-10-19T01:12:05.257Z,990.71
2023-10-19T01:13:05.150Z,990.69
2023-10-19T01:14:05.171Z,990.68
2023-10-19T01:15:05.115Z,990.67
2023-10-19T01:16:05.229Z,990.72
2023-10-19T01:17:05.113Z,990.75
2023-10-19T01:18:05.124Z,990.73
2023-10-19T01:19:05.006Z,990.69
2023-10-19T01:20:05.107Z,990.72
2023-10-19T01:21:04.955Z,990.76
2023-10-19T01:22:05.031Z,990.70
2023-10-19T01:23:04.919Z,990.71
2023-10-19T01:24:04.943Z,990.71
2023-10-19T01:25:04.881Z,990.69
2023-10-19T01:26:04.960Z,990.76
2023-10-19T01:27:04.812Z,990.73
2023-10-19T01:28:04.860Z,990.73
2023-10-19T01:29:04.764Z,990.73
2023-10-19T01:30:04.777Z,990.71
2023-10-19T01:31:04.732Z,990.72
2023-10-19T01:32:04.850Z,990.67
2023-10-19T01:33:04.712Z,990.70
2023-10-19T01:34:04.705Z,990.72
2023-10-19T01:35:04.629Z,990.71
2023-10-19T01:36:04.705Z,990.70
2023-10-19T01:37:04.584Z,990.68
2023-10-19T01:38:04.632Z,990.68
2023-10-19T01:39:04.524Z,990.67
2023-10-19T01:40:04.545Z,990.64
2023-10-19T01:41:04.481Z,990.70
2023-10-19T01:42:04.545Z,990.70
2023-10-19T01:43:04.445Z,990.69
2023-10-19T01:44:04.512Z,990.67
2023-10-19T01:45:04.386Z,990.66
2023-10-19T01:46:04.368Z,990.67
2023-10-19T01:47:04.395Z,990.61
2023-10-19T01:48:04.417Z,990.63
2023-10-19T01:49:04.279Z,990.59
2023-10-19T01:50:04.293Z,990.55
2023-10-19T01:51:04.250Z,990.58
2023-10-19T01:52:04.322Z,990.52
2023-10-19T01:53:04.183Z,990.47
2023-10-19T01:54:04.268Z,990.46
2023-10-19T01:55:04.144Z,990.46
2023-10-19T01:56:04.135Z,990.45
2023-10-19T01:57:04.129Z,990.50
2023-10-19T01:58:04.147Z,990.49
2023-10-19T01:59:04.036Z,990.50
2023-10-19T02:00:04.081Z,990.53
2023-10-19T02:01:04.016Z,990.49
2023-10-19T02:02:04.192Z,990.51
2023-10-19T02:03:04.117Z,990.48
2023-10-19T02:04:03.994Z,990.54
2023-10-19T02:05:03.901Z,990.52
2023-10-19T02:06:03.906Z,990.50
2023-10-19T02:07:03.845Z,990.54
2023-10-19T02:08:03.921Z,990.53
2023-10-19T02:09:03.817Z,990.47
2023-10-19T02:10:03.832Z,990.48
2023-10-19T02:11:03.770Z,990.49
2023-10-19T02:12:03.744Z,990.56
2023-10-19T02:13:03.704Z,990.54
2023-10-19T02:14:03.759Z,990.50
2023-10-19T02:15:03.672Z,990.51
2023-10-19T02:16:03.673Z,990.48
2023-10-19T02:17:03.763Z,990.49
2023-10-19T02:18:03.721Z,990.49
2023-10-19T02:19:03.570Z,990.52
2023-10-19T02:20:03.612Z,990.49
2023-10-19T02:21:03.540Z,990.49
2023-10-19T02:22:03.527Z,990.49
2023-10-19T02:23:03.467Z,990.44
2023-10-19T02:24:03.533Z,990.45
2023-10-19T02:25:03.462Z,990.42
2023-10-19T02:26:03.441Z,990.45
2023-10-19T02:27:03.385Z,990.39
2023-10-19T02:28:03.449Z,990.42
2023-10-19T02:29:03.336Z,990.43
2023-10-19T02:30:03.369Z,990.42
2023-10-19T02:31:03.291Z,990.45
2023-10-19T02:32:03.319Z,990.47
2023-10-19T02:33:03.261Z,990.47
2023-10-19T02:34:03.288Z,990.46
2023-10-19T02:35:03.222Z,990.44
2023-10-19T02:36:03.212Z,990.45
2023-10-19T02:37:03.230Z,990.46
2023-10-19T02:38:03.226Z,990.47
2023-10-19T02:39:03.094Z,990.42
2023-10-19T02:40:03.125Z,990.42
2023-10-19T02:41:03.037Z,990.44
2023-10-19T02:42:03.049Z,990.39
2023-10-19T02:43:02.995Z,990.34
2023-10-19T02:44:02.989Z,990.38
2023-10-19T02:45:02.954Z,990.34
2023-10-19T02:46:02.971Z,990.33
2023-10-19T02:47:02.984Z,990.34
2023-10-19T02:48:02.919Z,990.32
2023-10-19T02:49:02.864Z,990.32
2023-10-19T02:50:02.917Z,990.32
2023-10-19T02:51:02.916Z,990.34
2023-10-19T02:52:02.828Z,990.33
2023-10-19T02:53:02.763Z,990.38
2023-10-19T02:54:02.819Z,990.36
2023-10-19T02:55:02.718Z,990.37
2023-10-19T02:56:02.758Z,990.35
2023-10-19T02:57:02.672Z,990.36
2023-10-19T02:58:02.764Z,990.37
2023-10-19T02:59:02.636Z,990.36
2023-10-19T03:00:02.696Z,990.33
2023-10-19T03:01:02.655Z,990.30
2023-10-19T03:02:03.561Z,990.34
2023-10-19T03:03:02.652Z,990.33
2023-10-19T03:04:02.617Z,990.34
2023-10-19T03:05:02.592Z,990.28
2023-10-19T03:06:02.530Z,990.32
2023-10-19T03:07:02.452Z,990.33
2023-10-19T03:08:02.426Z,990.33
2023-10-19T03:09:02.400Z,990.31
2023-10-19T03:10:02.446Z,990.27
2023-10-19T03:11:02.354Z,990.26
2023-10-19T03:12:02.353Z,990.25
2023-10-19T03:13:02.311Z,990.26
2023-10-19T03:14:02.369Z,990.23
2023-10-19T03:15:02.260Z,990.25
2023-10-19T03:16:02.303Z,990.25
2023-10-19T03:17:02.465Z,990.23
2023-10-19T03:18:02.328Z,990.19
2023-10-19T03:19:02.193Z,990.21
2023-10-19T03:20:02.265Z,990.26
2023-10-19T03:21:02.230Z,990.23
2023-10-19T03:22:02.223Z,990.24
2023-10-19T03:23:02.100Z,990.23
2023-10-19T03:24:02.199Z,990.20
2023-10-19T03:25:02.025Z,990.18
2023-10-19T03:26:02.039Z,990.22
2023-10-19T03:27:01.973Z,990.22
2023-10-19T03:28:01.950Z,990.19
2023-10-19T03:29:01.917Z,990.16
2023-10-19T03:30:01.968Z,990.15
2023-10-19T03:31:01.911Z,990.16
2023-10-19T03:32:01.929Z,990.16
2023-10-19T03:33:01.912Z,990.16
2023-10-19T03:34:01.885Z,990.17
2023-10-19T03:35:01.877Z,990.16
2023-10-19T03:36:01.812Z,990.14
2023-10-19T03:37:01.714Z,990.18
2023-10-19T03:38:01.721Z,990.10
2023-10-19T03:39:01.666Z,990.11
2023-10-19T03:40:01.745Z,990.04
2023-10-19T03:41:01.631Z,990.04
2023-10-19T03:42:01.636Z,990.02
2023-10-19T03:43:01.582Z,989.99
2023-10-19T03:44:01.654Z,990.02
2023-10-19T03:45:01.550Z,990.01
2023-10-19T03:46:01.577Z,990.05
2023-10-19T03:47:01.583Z,989.98
2023-10-19T03:48:01.535Z,989.98
2023-10-19T03:49:01.442Z,989.99
2023-10-19T03:50:01.490Z,989.94
2023-10-19T03:51:01.389Z,989.93
2023-10-19T03:52:01.395Z,989.92
2023-10-19T03:53:01.398Z,989.96
2023-10-19T03:54:01.416Z,989.90
2023-10-19T03:55:01.308Z,989.93
2023-10-19T03:56:01.392Z,989.88
2023-10-19T03:57:01.261Z,989.90
2023-10-19T03:58:01.252Z,989.92
2023-10-19T03:59:01.224Z,989.90
2023-10-19T04:00:01.282Z,989.92
2023-10-19T04:01:01.170Z,989.95
2023-10-19T04:02:01.256Z,989.90
2023-10-19T04:03:01.181Z,989.91
2023-10-19T04:04:02.090Z,989.88
2023-10-19T04:05:01.115Z,989.86
2023-10-19T04:06:01.108Z,989.85
2023-10-19T04:07:01.023Z,989.91
2023-10-19T04:08:01.069Z,989.92
2023-10-19T04:09:00.993Z,989.97
2023-10-19T04:10:01.184Z,989.96
2023-10-19T04:11:00.936Z,990.01
2023-10-19T04:12:00.966Z,989.96
2023-10-19T04:13:00.996Z,989.97
2023-10-19T04:14:00.978Z,990.00
2023-10-19T04:15:00.836Z,989.97
2023-10-19T04:16:00.887Z,989.94
2023-10-19T04:17:00.862Z,989.95
2023-10-19T04:18:00.827Z,989.96
2023-10-19T04:19:00.743Z,989.99
2023-10-19T04:20:00.831Z,989.99
2023-10-19T04:21:00.710Z,989.97
2023-10-19T04:22:00.733Z,989.96
2023-10-19T04:23:00.694Z,989.97
2023-10-19T04:24:00.734Z,989.97
2023-10-19T04:25:00.600Z,989.98
2023-10-19T04:26:00.675Z,989.97
2023-10-19T04:27:00.575Z,989.95
2023-10-19T04:28:00.556Z,989.92
2023-10-19T04:29:00.554Z,989.91
2023-10-19T04:30:00.573Z,989.90
2023-10-19T04:31:00.505Z,989.96
2023-10-19T04:32:00.532Z,989.93
2023-10-19T04:33:00.488Z,989.98
2023-10-19T04:34:00.511Z,989.96
2023-10-19T04:35:00.450Z,989.99
2023-10-19T04:36:00.409Z,989.98
2023-10-19T04:37:00.330Z,989.93
2023-10-19T04:38:00.361Z,989.92
2023-10-19T04:39:00.296Z,989.90
2023-10-19T04:40:00.352Z,989.92
2023-10-19T04:41:00.281Z,989.94
2023-10-19T04:42:00.329Z,989.93
2023-10-19T04:43:00.190Z,989.92
2023-10-19T04:44:00.312Z,989.96
2023-10-19T04:45:00.188Z,989.95
2023-10-19T04:46:00.225Z,989.94
2023-10-19T04:47:00.213Z,989.92
2023-10-19T04:48:00.202Z,989.93
2023-10-19T04:49:00.046Z,989.92
2023-10-19T04:50:00.172Z,989.90
2023-10-19T04:51:00.011Z,989.90
2023-10-19T04:52:00.015Z,989.91
2023-10-19T04:53:00.026Z,989.89
2023-10-19T04:54:00.031Z,989.91
2023-10-19T04:54:59.908Z,989.89
2023-10-19T04:55:59.967Z,989.93
2023-10-19T04:56:59.860Z,989.92
2023-10-19T04:57:59.855Z,989.95
2023-10-19T04:58:59.858Z,989.98
2023-10-19T04:59:59.873Z,989.98
2023-10-19T05:00:59.794Z,989.97
2023-10-19T05:02:00.956Z,989.97
2023-10-19T05:02:59.830Z,990.02
2023-10-19T05:03:59.830Z,990.02
2023-10-19T05:04:59.690Z,990.01
2023-10-19T05:05:59.710Z,990.05
2023-10-19T05:06:59.628Z,990.05
2023-10-19T05:07:59.659Z,990.01
2023-10-19T05:08:59.572Z,990.03
2023-10-19T05:09:59.643Z,990.01
2023-10-19T05:10:59.559Z,989.96
2023-10-19T05:11:59.563Z,989.94
2023-10-19T05:12:59.486Z,989.94
2023-10-19T05:13:59.629Z,989.96
2023-10-19T05:14:59.454Z,990.00
2023-10-19T05:15:59.502Z,989.97
2023-10-19T05:16:59.529Z,989.97
2023-10-19T05:17:59.419Z,989.97
2023-10-19T05:18:59.350Z,989.97
2023-10-19T05:19:59.472Z,989.97
2023-10-19T05:20:59.294Z,989.96
2023-10-19T05:21:59.317Z,990.00
2023-10-19T05:22:59.319Z,989.97
2023-10-19T05:23:59.240Z,989.98
2023-10-19T05:24:59.207Z,989.97
2023-10-19T05:25:59.270Z,989.97
2023-10-19T05:26:59.155Z,989.97
2023-10-19T05:27:59.164Z,989.97
2023-10-19T05:28:59.135Z,989.96
2023-10-19T05:29:59.182Z,989.94
2023-10-19T05:30:59.067Z,989.93
2023-10-19T05:31:59.174Z,989.94
2023-10-19T05:32:59.171Z,989.94
2023-10-19T05:33:59.014Z,989.95
2023-10-19T05:35:00.884Z,989.89
2023-10-19T05:35:59.035Z,989.91
2023-10-19T05:36:58.925Z,989.91
2023-10-19T05:37:58.951Z,989.89
2023-10-19T05:38:58.893Z,989.86
2023-10-19T05:39:58.933Z,989.92
2023-10-19T05:40:58.878Z,989.88
2023-10-19T05:41:58.854Z,989.94
2023-10-19T05:42:58.792Z,989.95
2023-10-19T05:43:58.907Z,989.98
2023-10-19T05:44:58.724Z,990.01
2023-10-19T05:45:58.796Z,989.98
2023-10-19T05:46:58.761Z,990.01
2023-10-19T05:47:58.797Z,989.99
2023-10-19T05:48:58.645Z,990.01
2023-10-19T05:49:58.746Z,989.99
2023-10-19T05:50:58.595Z,989.99
2023-10-19T05:51:59.694Z,989.99
2023-10-19T05:52:58.577Z,990.00
2023-10-19T05:53:58.523Z,989.99
2023-10-19T05:54:58.499Z,989.98
2023-10-19T05:55:58.563Z,989.97
2023-10-19T05:56:58.451Z,990.00
2023-10-19T05:57:58.490Z,990.08
2023-10-19T05:58:58.431Z,990.08
2023-10-19T05:59:58.471Z,990.12
2023-10-19T06:00:58.361Z,990.11
2023-10-19T06:01:58.510Z,990.12
2023-10-19T06:02:58.473Z,990.13
2023-10-19T06:03:58.330Z,990.12
2023-10-19T06:04:58.470Z,990.10
2023-10-19T06:05:58.312Z,990.09
2023-10-19T06:06:58.220Z,990.12
2023-10-19T06:07:58.280Z,990.15
2023-10-19T06:08:58.176Z,990.18
2023-10-19T06:09:58.235Z,990.20
2023-10-19T06:10:58.198Z,990.19
2023-10-19T06:11:58.166Z,990.21
2023-10-19T06:12:58.077Z,990.23
2023-10-19T06:13:58.236Z,990.22
2023-10-19T06:14:58.016Z,990.25
2023-10-19T06:15:58.178Z,990.23
2023-10-19T06:16:58.029Z,990.22
2023-10-19T06:17:58.079Z,990.24
2023-10-19T06:18:57.997Z,990.24
2023-10-19T06:19:58.123Z,990.25
2023-10-19T06:20:57.882Z,990.23
2023-10-19T06:21:57.916Z,990.25
2023-10-19T06:22:57.908Z,990.25
2023-10-19T06:23:57.823Z,990.28
2023-10-19T06:24:57.794Z,990.25
2023-10-19T06:25:57.862Z,990.29
2023-10-19T06:26:57.752Z,990.26
2023-10-19T06:27:57.749Z,990.27
2023-10-19T06:28:57.766Z,990.28
2023-10-19T06:29:57.763Z,990.30
2023-10-19T06:30:57.652Z,990.30
2023-10-19T06:31:57.768Z,990.30
2023-10-19T06:32:57.754Z,990.31
2023-10-19T06:33:57.592Z,990.31
2023-10-19T06:34:57.597Z,990.31
2023-10-19T06:35:57.602Z,990.34
2023-10-19T06:36:57.587Z,990.33
2023-10-19T06:37:57.584Z,990.33
2023-10-19T06:38:57.463Z,990.34
2023-10-19T06:39:57.530Z,990.35
2023-10-19T06:40:57.460Z,990.38
2023-10-19T06:41:57.442Z,990.38
2023-10-19T06:42:57.367Z,990.43
2023-10-19T06:43:57.374Z,990.40
2023-10-19T06:44:57.346Z,990.43
2023-10-19T06:45:57.396Z,990.41
2023-10-19T06:46:57.332Z,990.41
2023-10-19T06:47:57.356Z,990.41
2023-10-19T06:48:57.243Z,990.46
2023-10-19T06:49:57.357Z,990.46
2023-10-19T06:50:57.179Z,990.44
2023-10-19T06:51:57.208Z,990.47
2023-10-19T06:52:57.179Z,990.48
2023-10-19T06:53:57.132Z,990.49
2023-10-19T06:54:57.089Z,990.48
2023-10-19T06:55:57.129Z,990.52
2023-10-19T06:56:57.043Z,990.48
2023-10-19T06:57:57.022Z,990.49
2023-10-19T06:58:57.074Z,990.48
2023-10-19T06:59:56.979Z,990.46
2023-10-19T07:00:56.955Z,990.46
2023-10-19T07:01:57.043Z,990.47
2023-10-19T07:02:56.945Z,990.42
2023-10-19T07:03:56.893Z,990.45
2023-10-19T07:04:56.874Z,990.46
2023-10-19T07:05:56.825Z,990.51
2023-10-19T07:06:56.812Z,990.53
2023-10-19T07:07:56.822Z,990.57
2023-10-19T07:08:56.767Z,990.57
2023-10-19T07:09:57.729Z,990.55
2023-10-19T07:10:56.749Z,990.54
2023-10-19T07:11:56.688Z,990.57
2023-10-19T07:12:56.664Z,990.59
2023-10-19T07:13:56.696Z,990.58
2023-10-19T07:14:56.625Z,990.59
2023-10-19T07:15:56.603Z,990.62
2023-10-19T07:16:56.616Z,990.60
2023-10-19T07:17:56.614Z,990.60
2023-10-19T07:18:56.529Z,990.64
2023-10-19T07:19:56.521Z,990.65
2023-10-19T07:20:56.500Z,990.66
2023-10-19T07:21:56.453Z,990.65
2023-10-19T07:22:56.495Z,990.62
2023-10-19T07:23:56.414Z,990.58
2023-10-19T07:24:56.396Z,990.54
2023-10-19T07:25:56.385Z,990.53
2023-10-19T07:26:56.339Z,990.53
2023-10-19T07:27:56.356Z,990.51
2023-10-19T07:28:56.341Z,990.54
2023-10-19T07:29:56.274Z,990.55
2023-10-19T07:30:56.242Z,990.55
2023-10-19T07:31:56.308Z,990.52
2023-10-19T07:32:56.216Z,990.55
2023-10-19T07:33:56.176Z,990.52
2023-10-19T07:34:56.185Z,990.54
2023-10-19T07:35:56.224Z,990.54
2023-10-19T07:36:56.110Z,990.51
2023-10-19T07:37:56.122Z,990.55
2023-10-19T07:38:56.068Z,990.54
2023-10-19T07:39:56.037Z,990.54
2023-10-19T07:40:56.160Z,990.56
2023-10-19T07:41:56.990Z,990.57
2023-10-19T07:42:55.977Z,990.54
2023-10-19T07:43:55.994Z,990.57
2023-10-19T07:44:55.926Z,990.58
2023-10-19T07:45:56.016Z,990.56
2023-10-19T07:46:55.883Z,990.53
2023-10-19T07:47:55.958Z,990.54
2023-10-19T07:48:55.827Z,990.54
2023-10-19T07:49:55.860Z,990.58
2023-10-19T07:50:55.813Z,990.58
2023-10-19T07:51:57.801Z,990.59
2023-10-19T07:52:55.830Z,990.58
2023-10-19T07:53:55.723Z,990.55
2023-10-19T07:54:55.695Z,990.52
2023-10-19T07:55:55.747Z,990.51
2023-10-19T07:56:55.655Z,990.53
2023-10-19T07:57:55.627Z,990.50
2023-10-19T07:58:55.659Z,990.50
2023-10-19T07:59:55.582Z,990.44
2023-10-19T08:00:55.629Z,990.42
2023-10-19T08:01:55.681Z,990.45
2023-10-19T08:02:55.592Z,990.39
2023-10-19T08:03:55.593Z,990.45
2023-10-19T08:04:55.497Z,990.40
2023-10-19T08:05:55.448Z,990.43
2023-10-19T08:06:55.425Z,990.42
2023-10-19T08:07:55.480Z,990.40
2023-10-19T08:08:55.373Z,990.36
2023-10-19T08:09:55.364Z,990.44
2023-10-19T08:10:55.412Z,990.37
2023-10-19T08:11:55.314Z,990.39
2023-10-19T08:12:55.289Z,990.40
2023-10-19T08:13:55.289Z,990.42
2023-10-19T08:14:55.246Z,990.39
2023-10-19T08:15:55.229Z,990.39
2023-10-19T08:16:55.265Z,990.39
2023-10-19T08:17:55.273Z,990.39
2023-10-19T08:18:56.983Z,990.40
2023-10-19T08:19:55.154Z,990.38
2023-10-19T08:20:55.092Z,990.36
2023-10-19T08:21:55.089Z,990.32
2023-10-19T08:22:55.118Z,990.29
2023-10-19T08:23:55.092Z,990.32
2023-10-19T08:24:54.998Z,990.31
2023-10-19T08:25:57.374Z,990.34
2023-10-19T08:26:54.960Z,990.31
2023-10-19T08:27:55.015Z,990.35
2023-10-19T08:28:54.964Z,990.35
2023-10-19T08:29:54.941Z,990.39
2023-10-19T08:30:54.900Z,990.38
2023-10-19T08:31:55.072Z,990.36
2023-10-19T08:32:54.847Z,990.38
2023-10-19T08:33:54.856Z,990.34
2023-10-19T08:34:54.801Z,990.35
2023-10-19T08:35:54.793Z,990.31
2023-10-19T08:36:54.725Z,990.31
2023-10-19T08:37:54.844Z,990.31
2023-10-19T08:38:54.677Z,990.25
2023-10-19T08:39:54.689Z,990.29
2023-10-19T08:40:54.731Z,990.24
2023-10-19T08:41:54.709Z,990.25
2023-10-19T08:42:54.593Z,990.21
2023-10-19T08:43:54.681Z,990.18
2023-10-19T08:44:54.558Z,990.24
2023-10-19T08:45:54.710Z,990.22
2023-10-19T08:46:56.313Z,990.19
2023-10-19T08:47:54.586Z,990.13
2023-10-19T08:48:54.461Z,990.13
2023-10-19T08:49:54.457Z,990.13
2023-10-19T08:50:54.436Z,990.16
2023-10-19T08:51:54.476Z,990.15
2023-10-19T08:52:54.380Z,990.19
2023-10-19T08:53:54.379Z,990.16
2023-10-19T08:54:54.329Z,990.17
2023-10-19T08:55:54.424Z,990.17
2023-10-19T08:56:54.288Z,990.19
2023-10-19T08:57:54.320Z,990.22
2023-10-19T08:58:54.278Z,990.21
2023-10-19T08:59:54.315Z,990.25
2023-10-19T09:00:54.214Z,990.25
2023-10-19T09:01:54.312Z,990.29
2023-10-19T09:02:54.179Z,990.29
2023-10-19T09:03:54.171Z,990.34
2023-10-19T09:04:54.147Z,990.60
2023-10-19T09:05:54.148Z,990.71
2023-10-19T09:06:54.065Z,990.61
2023-10-19T09:07:54.106Z,990.58
2023-10-19T09:08:54.056Z,990.50
2023-10-19T09:09:54.198Z,990.51
2023-10-19T09:10:54.022Z,990.60
2023-10-19T09:11:54.089Z,990.64
2023-10-19T09:12:53.949Z,990.59
2023-10-19T09:13:54.139Z,990.62
2023-10-19T09:14:53.911Z,990.63
2023-10-19T09:15:54.083Z,990.61
2023-10-19T09:16:53.889Z,990.62
2023-10-19T09:17:54.080Z,990.54
2023-10-19T09:18:53.848Z,990.49
2023-10-19T09:19:54.008Z,990.49
2023-10-19T09:20:54.280Z,990.51
2023-10-19T09:21:53.952Z,990.52
2023-10-19T09:22:53.798Z,990.43
2023-10-19T09:23:53.869Z,990.46
2023-10-19T09:24:53.732Z,990.32
2023-10-19T09:25:54.153Z,990.31
2023-10-19T09:26:53.726Z,990.36
2023-10-19T09:27:53.785Z,990.45
2023-10-19T09:28:53.743Z,990.49
2023-10-19T09:29:53.833Z,990.45
2023-10-19T09:30:53.784Z,990.43
2023-10-19T09:31:53.885Z,990.36
2023-10-19T09:32:53.693Z,990.25
2023-10-19T09:33:53.741Z,990.43
2023-10-19T09:34:53.655Z,990.11
2023-10-19T09:35:53.821Z,990.13
2023-10-19T09:36:53.590Z,990.16
2023-10-19T09:37:53.688Z,990.13
2023-10-19T09:38:53.557Z,990.12
2023-10-19T09:39:53.694Z,990.28
2023-10-19T09:40:53.549Z,990.25
2023-10-19T09:41:53.681Z,990.27
2023-10-19T09:42:53.537Z,990.19
2023-10-19T09:43:53.636Z,990.24
2023-10-19T09:44:53.503Z,990.44
2023-10-19T09:45:53.602Z,990.55
2023-10-19T09:46:53.531Z,990.57
2023-10-19T09:47:53.674Z,990.62
2023-10-19T09:48:53.492Z,990.55
2023-10-19T09:49:53.578Z,990.76
2023-10-19T09:50:53.424Z,990.54
2023-10-19T09:52:06.619Z,990.78
2023-10-19T09:52:53.426Z,990.79
2023-10-19T09:53:53.586Z,990.62
2023-10-19T09:54:53.365Z,990.50
2023-10-19T09:55:53.526Z,990.55
2023-10-19T09:56:55.009Z,990.47
2023-10-19T09:57:53.503Z,990.51
2023-10-19T09:58:53.435Z,990.44
2023-10-19T09:59:53.449Z,990.53
2023-10-19T10:00:53.373Z,990.54
2023-10-19T10:01:53.444Z,990.59
2023-10-19T10:02:53.397Z,990.48
2023-10-19T10:03:53.494Z,990.47
2023-10-19T10:04:53.336Z,990.53
2023-10-19T10:05:53.301Z,990.46
2023-10-19T10:06:53.283Z,990.46
2023-10-19T10:07:53.361Z,990.40
2023-10-19T10:08:53.264Z,990.23
2023-10-19T10:09:53.342Z,990.12
2023-10-19T10:10:53.268Z,990.06
2023-10-19T10:11:53.268Z,990.05
2023-10-19T10:12:53.224Z,990.05
2023-10-19T10:13:53.440Z,989.98
2023-10-19T10:14:53.305Z,990.06
2023-10-19T10:15:53.283Z,990.12
2023-10-19T10:16:53.263Z,990.14
2023-10-19T10:17:53.368Z,990.00
2023-10-19T10:18:53.178Z,990.04
2023-10-19T10:19:53.259Z,989.98
2023-10-19T10:20:53.132Z,989.96
2023-10-19T10:21:53.242Z,989.87
2023-10-19T10:22:53.163Z,989.85
2023-10-19T10:23:53.148Z,989.83
2023-10-19T10:24:53.108Z,989.84
2023-10-19T10:25:53.202Z,989.86
2023-10-19T10:26:53.065Z,989.84
2023-10-19T10:27:53.095Z,989.85
2023-10-19T10:28:54.823Z,989.88
2023-10-19T10:29:53.114Z,989.91
2023-10-19T10:30:53.030Z,989.92
2023-10-19T10:31:53.117Z,989.93
2023-10-19T10:32:53.033Z,989.91
2023-10-19T10:33:53.002Z,989.92
2023-10-19T10:34:52.964Z,990.08
2023-10-19T10:35:53.074Z,990.78
2023-10-19T10:36:52.992Z,990.77
2023-10-19T10:37:53.005Z,990.80
2023-10-19T10:38:52.891Z,990.66
2023-10-19T10:39:52.907Z,990.51
2023-10-19T10:40:52.884Z,990.49
2023-10-19T10:41:52.924Z,990.43
2023-10-19T10:42:52.833Z,990.52
2023-10-19T10:43:54.094Z,990.48
2023-10-19T10:44:52.817Z,990.44
2023-10-19T10:45:52.939Z,990.50
2023-10-19T10:46:52.904Z,990.52
2023-10-19T10:47:52.889Z,990.55
2023-10-19T10:48:52.844Z,990.30
2023-10-19T10:49:52.923Z,990.47
2023-10-19T10:50:52.769Z,990.15
2023-10-19T10:51:52.785Z,990.40
2023-10-19T10:52:52.770Z,990.22
2023-10-19T10:53:52.804Z,990.13
2023-10-19T10:54:52.680Z,990.03
2023-10-19T10:55:52.956Z,990.26
2023-10-19T10:56:52.650Z,990.51
2023-10-19T10:57:53.127Z,990.51
2023-10-19T10:58:52.683Z,990.55
2023-10-19T10:59:52.769Z,990.52
2023-10-19T11:00:52.951Z,990.08
2023-10-19T11:01:52.747Z,989.80
2023-10-19T11:02:52.609Z,990.42
2023-10-19T11:03:53.304Z,989.69
2023-10-19T11:04:52.627Z,989.73
2023-10-19T11:05:52.794Z,989.80
2023-10-19T11:06:52.559Z,989.74
2023-10-19T11:07:52.639Z,989.81
2023-10-19T11:08:52.540Z,989.74
2023-10-19T11:09:53.292Z,989.82
2023-10-19T11:10:52.538Z,989.79
2023-10-19T11:11:53.826Z,989.81
2023-10-19T11:12:52.493Z,989.81
2023-10-19T11:13:52.571Z,989.75
2023-10-19T11:14:52.499Z,989.67
2023-10-19T11:15:53.018Z,989.63
2023-10-19T11:16:52.457Z,989.53
2023-10-19T11:17:52.486Z,989.48
2023-10-19T11:18:52.439Z,989.51
2023-10-19T11:19:52.534Z,989.47
2023-10-19T11:20:52.382Z,989.47
2023-10-19T11:21:52.718Z,989.45
2023-10-19T11:22:52.475Z,989.46
2023-10-19T11:23:52.415Z,989.41
2023-10-19T11:24:52.357Z,989.48
2023-10-19T11:25:52.558Z,989.49
2023-10-19T11:26:52.341Z,989.46
2023-10-19T11:27:52.363Z,989.44
2023-10-19T11:28:52.401Z,989.48
2023-10-19T11:29:52.418Z,989.45
2023-10-19T11:30:52.316Z,989.47
2023-10-19T11:31:52.296Z,989.51
2023-10-19T11:32:52.328Z,989.48
2023-10-19T11:33:52.312Z,989.45
2023-10-19T11:34:52.216Z,989.43
2023-10-19T11:35:52.303Z,989.37
2023-10-19T11:36:52.178Z,989.32
2023-10-19T11:37:52.248Z,989.33
2023-10-19T11:38:52.141Z,989.28
2023-10-19T11:39:52.237Z,989.32
2023-10-19T11:40:52.214Z,989.32
2023-10-19T11:41:52.145Z,989.29
2023-10-19T11:42:52.079Z,989.35
2023-10-19T11:43:52.176Z,989.34
2023-10-19T11:44:52.046Z,989.31
2023-10-19T11:45:52.050Z,989.32
2023-10-19T11:46:52.082Z,989.32
2023-10-19T11:47:52.127Z,989.34
2023-10-19T11:48:51.980Z,989.33
2023-10-19T11:49:52.086Z,989.33
2023-10-19T11:50:51.955Z,989.28
2023-10-19T11:51:52.009Z,989.24
2023-10-19T11:52:51.962Z,989.21
2023-10-19T11:53:52.005Z,989.18
2023-10-19T11:54:51.885Z,989.17
2023-10-19T11:55:51.972Z,989.19
2023-10-19T11:56:51.852Z,989.17
2023-10-19T11:57:51.929Z,989.14
2023-10-19T11:58:51.841Z,989.15
2023-10-19T11:59:51.839Z,989.15
2023-10-19T12:00:51.770Z,989.11
2023-10-19T12:01:51.908Z,989.10
2023-10-19T12:02:51.972Z,989.14
2023-10-19T12:03:51.860Z,989.08
2023-10-19T12:04:51.794Z,989.13
2023-10-19T12:05:51.779Z,989.10
2023-10-19T12:06:51.668Z,989.09
2023-10-19T12:07:51.717Z,989.04
2023-10-19T12:08:51.686Z,989.03
2023-10-19T12:09:51.710Z,989.04
2023-10-19T12:10:51.623Z,988.98
2023-10-19T12:11:51.614Z,988.98
2023-10-19T12:13:01.365Z,988.94
2023-10-19T12:13:51.689Z,988.94
2023-10-19T12:14:51.541Z,988.94
2023-10-19T12:15:51.541Z,988.97
2023-10-19T12:16:51.578Z,988.98
2023-10-19T12:17:51.602Z,988.97
2023-10-19T12:18:51.474Z,988.93
2023-10-19T12:19:51.477Z,988.95
2023-10-19T12:20:51.432Z,988.93
2023-10-19T12:21:51.488Z,988.98
2023-10-19T12:22:51.431Z,988.94
2023-10-19T12:23:51.396Z,989.00
2023-10-19T12:24:51.360Z,989.05
2023-10-19T12:25:57.560Z,989.05
2023-10-19T12:26:51.338Z,989.05
2023-10-19T12:27:51.332Z,989.06